sensor_id;sensor_type;location;lat;lon;timestamp;P1;durP1;ratioP1;P2;durP2;ratioP2
50393;SDS011;36308;46.312;25.288;2024-01-15T00:01:46;23.38;;;12.05;;
50393;SDS011;36308;46.312;25.288;2024-01-15T00:04:12;22.25;;;11.30;;
50393;SDS011;36308;46.312;25.288;2024-01-15T00:06:37;22.55;;;11.70;;
50393;SDS011;36308;46.312;25.288;2024-01-15T00:09:04;22.63;;;11.25;;
50393;SDS011;36308;46.312;25.288;2024-01-15T00:11:30;21.48;;;11.00;;
50393;SDS011;36308;46.312;25.288;2024-01-15T00:13:56;18.10;;;9.45;;
50393;SDS011;36308;46.312;25.288;2024-01-15T00:16:21;19.90;;;9.18;;
50393;SDS011;36308;46.312;25.288;2024-01-15T00:18:46;17.25;;;9.73;;
50393;SDS011;36308;46.312;25.288;2024-01-15T00:21:12;17.40;;;9.25;;
50393;SDS011;36308;46.312;25.288;2024-01-15T00:23:39;21.92;;;10.40;;
50393;SDS011;36308;46.312;25.288;2024-01-15T00:26:09;19.60;;;9.48;;
50393;SDS011;36308;46.312;25.288;2024-01-15T00:28:35;20.27;;;9.02;;
50393;SDS011;36308;46.312;25.288;2024-01-15T00:31:04;20.50;;;9.32;;
50393;SDS011;36308;46.312;25.288;2024-01-15T00:33:30;32.67;;;15.70;;
50393;SDS011;36308;46.312;25.288;2024-01-15T00:35:56;33.60;;;17.15;;
50393;SDS011;36308;46.312;25.288;2024-01-15T00:38:22;33.47;;;16.45;;
50393;SDS011;36308;46.312;25.288;2024-01-15T00:40:47;31.13;;;16.27;;
50393;SDS011;36308;46.312;25.288;2024-01-15T00:43:13;30.25;;;14.88;;
50393;SDS011;36308;46.312;25.288;2024-01-15T00:45:39;30.60;;;14.55;;
50393;SDS011;36308;46.312;25.288;2024-01-15T00:48:05;31.05;;;15.65;;
50393;SDS011;36308;46.312;25.288;2024-01-15T00:50:30;33.50;;;15.82;;
50393;SDS011;36308;46.312;25.288;2024-01-15T00:52:56;30.30;;;14.48;;
50393;SDS011;36308;46.312;25.288;2024-01-15T00:55:21;30.13;;;14.55;;
50393;SDS011;36308;46.312;25.288;2024-01-15T00:57:47;35.53;;;17.10;;
50393;SDS011;36308;46.312;25.288;2024-01-15T01:00:12;30.50;;;14.77;;
50393;SDS011;36308;46.312;25.288;2024-01-15T01:02:38;24.98;;;13.15;;
50393;SDS011;36308;46.312;25.288;2024-01-15T01:05:04;26.25;;;13.98;;
50393;SDS011;36308;46.312;25.288;2024-01-15T01:07:29;22.85;;;12.23;;
50393;SDS011;36308;46.312;25.288;2024-01-15T01:09:55;27.50;;;14.88;;
50393;SDS011;36308;46.312;25.288;2024-01-15T01:12:20;23.48;;;12.45;;
50393;SDS011;36308;46.312;25.288;2024-01-15T01:14:46;19.60;;;10.23;;
50393;SDS011;36308;46.312;25.288;2024-01-15T01:17:11;23.88;;;10.60;;
50393;SDS011;36308;46.312;25.288;2024-01-15T01:19:37;21.85;;;11.02;;
50393;SDS011;36308;46.312;25.288;2024-01-15T01:22:03;22.33;;;11.05;;
50393;SDS011;36308;46.312;25.288;2024-01-15T01:24:28;25.90;;;13.52;;
50393;SDS011;36308;46.312;25.288;2024-01-15T01:26:54;24.50;;;13.50;;
50393;SDS011;36308;46.312;25.288;2024-01-15T01:29:19;27.95;;;13.25;;
50393;SDS011;36308;46.312;25.288;2024-01-15T01:31:45;25.73;;;13.75;;
50393;SDS011;36308;46.312;25.288;2024-01-15T01:34:13;27.52;;;12.38;;
50393;SDS011;36308;46.312;25.288;2024-01-15T01:36:39;19.80;;;10.90;;
50393;SDS011;36308;46.312;25.288;2024-01-15T01:39:05;19.63;;;10.07;;
50393;SDS011;36308;46.312;25.288;2024-01-15T01:41:30;19.85;;;10.10;;
50393;SDS011;36308;46.312;25.288;2024-01-15T01:43:56;21.02;;;9.98;;
50393;SDS011;36308;46.312;25.288;2024-01-15T01:46:22;21.05;;;10.65;;
50393;SDS011;36308;46.312;25.288;2024-01-15T01:48:48;21.45;;;10.73;;
50393;SDS011;36308;46.312;25.288;2024-01-15T01:51:14;23.85;;;10.98;;
50393;SDS011;36308;46.312;25.288;2024-01-15T01:53:40;19.33;;;9.95;;
50393;SDS011;36308;46.312;25.288;2024-01-15T01:56:06;20.92;;;9.63;;
50393;SDS011;36308;46.312;25.288;2024-01-15T01:58:32;21.67;;;10.02;;
50393;SDS011;36308;46.312;25.288;2024-01-15T02:00:59;18.75;;;9.68;;
50393;SDS011;36308;46.312;25.288;2024-01-15T02:03:25;20.48;;;10.13;;
50393;SDS011;36308;46.312;25.288;2024-01-15T02:05:52;26.75;;;11.15;;
50393;SDS011;36308;46.312;25.288;2024-01-15T02:08:18;35.10;;;15.80;;
50393;SDS011;36308;46.312;25.288;2024-01-15T02:10:44;25.73;;;11.10;;
50393;SDS011;36308;46.312;25.288;2024-01-15T02:13:10;18.13;;;9.00;;
50393;SDS011;36308;46.312;25.288;2024-01-15T02:15:36;19.23;;;9.13;;
50393;SDS011;36308;46.312;25.288;2024-01-15T02:18:05;20.48;;;9.40;;
50393;SDS011;36308;46.312;25.288;2024-01-15T02:20:32;22.33;;;10.00;;
50393;SDS011;36308;46.312;25.288;2024-01-15T02:23:05;20.95;;;10.32;;
50393;SDS011;36308;46.312;25.288;2024-01-15T02:25:35;20.70;;;9.93;;
50393;SDS011;36308;46.312;25.288;2024-01-15T02:28:01;24.70;;;11.20;;
50393;SDS011;36308;46.312;25.288;2024-01-15T02:30:27;24.85;;;10.43;;
50393;SDS011;36308;46.312;25.288;2024-01-15T02:33:12;21.77;;;10.32;;
50393;SDS011;36308;46.312;25.288;2024-01-15T02:35:38;20.88;;;9.73;;
50393;SDS011;36308;46.312;25.288;2024-01-15T02:38:03;20.80;;;9.95;;
50393;SDS011;36308;46.312;25.288;2024-01-15T02:40:30;21.02;;;9.82;;
50393;SDS011;36308;46.312;25.288;2024-01-15T02:42:55;23.08;;;11.80;;
50393;SDS011;36308;46.312;25.288;2024-01-15T02:45:21;22.92;;;11.55;;
50393;SDS011;36308;46.312;25.288;2024-01-15T02:47:48;27.35;;;12.43;;
50393;SDS011;36308;46.312;25.288;2024-01-15T02:50:14;31.10;;;15.15;;
50393;SDS011;36308;46.312;25.288;2024-01-15T02:52:41;33.05;;;15.02;;
50393;SDS011;36308;46.312;25.288;2024-01-15T02:55:08;33.40;;;15.90;;
50393;SDS011;36308;46.312;25.288;2024-01-15T02:57:34;32.03;;;15.98;;
50393;SDS011;36308;46.312;25.288;2024-01-15T02:59:59;32.70;;;16.27;;
50393;SDS011;36308;46.312;25.288;2024-01-15T03:02:25;34.88;;;17.55;;
50393;SDS011;36308;46.312;25.288;2024-01-15T03:04:50;30.00;;;14.45;;
50393;SDS011;36308;46.312;25.288;2024-01-15T03:07:16;27.38;;;14.13;;
50393;SDS011;36308;46.312;25.288;2024-01-15T03:09:41;29.05;;;14.38;;
50393;SDS011;36308;46.312;25.288;2024-01-15T03:12:07;29.50;;;14.52;;
50393;SDS011;36308;46.312;25.288;2024-01-15T03:14:32;28.17;;;13.95;;
50393;SDS011;36308;46.312;25.288;2024-01-15T03:16:58;32.42;;;16.70;;
50393;SDS011;36308;46.312;25.288;2024-01-15T03:19:25;36.80;;;19.20;;
50393;SDS011;36308;46.312;25.288;2024-01-15T03:21:51;34.63;;;16.35;;
50393;SDS011;36308;46.312;25.288;2024-01-15T03:24:16;31.00;;;15.82;;
50393;SDS011;36308;46.312;25.288;2024-01-15T03:26:42;26.00;;;13.32;;
50393;SDS011;36308;46.312;25.288;2024-01-15T03:29:07;36.40;;;16.08;;
50393;SDS011;36308;46.312;25.288;2024-01-15T03:31:33;54.53;;;23.30;;
50393;SDS011;36308;46.312;25.288;2024-01-15T03:33:58;68.40;;;26.80;;
50393;SDS011;36308;46.312;25.288;2024-01-15T03:36:24;59.35;;;24.85;;
50393;SDS011;36308;46.312;25.288;2024-01-15T03:38:50;46.20;;;19.63;;
50393;SDS011;36308;46.312;25.288;2024-01-15T03:41:16;37.85;;;18.35;;
50393;SDS011;36308;46.312;25.288;2024-01-15T03:43:41;41.10;;;19.40;;
50393;SDS011;36308;46.312;25.288;2024-01-15T03:46:07;122.47;;;45.15;;
50393;SDS011;36308;46.312;25.288;2024-01-15T03:48:32;212.20;;;76.90;;
50393;SDS011;36308;46.312;25.288;2024-01-15T03:50:58;121.93;;;45.40;;
50393;SDS011;36308;46.312;25.288;2024-01-15T03:53:23;86.07;;;36.67;;
50393;SDS011;36308;46.312;25.288;2024-01-15T03:55:49;59.85;;;26.52;;
50393;SDS011;36308;46.312;25.288;2024-01-15T03:58:15;55.78;;;24.52;;
50393;SDS011;36308;46.312;25.288;2024-01-15T04:00:41;63.38;;;28.83;;
50393;SDS011;36308;46.312;25.288;2024-01-15T04:03:07;101.20;;;44.13;;
50393;SDS011;36308;46.312;25.288;2024-01-15T04:05:32;84.82;;;38.60;;
50393;SDS011;36308;46.312;25.288;2024-01-15T04:07:58;73.25;;;32.42;;
50393;SDS011;36308;46.312;25.288;2024-01-15T04:10:23;77.43;;;33.38;;
50393;SDS011;36308;46.312;25.288;2024-01-15T04:12:49;71.78;;;32.63;;
50393;SDS011;36308;46.312;25.288;2024-01-15T04:15:14;65.75;;;30.50;;
50393;SDS011;36308;46.312;25.288;2024-01-15T04:17:40;57.35;;;24.58;;
50393;SDS011;36308;46.312;25.288;2024-01-15T04:20:06;76.55;;;32.05;;
50393;SDS011;36308;46.312;25.288;2024-01-15T04:22:32;81.20;;;35.42;;
50393;SDS011;36308;46.312;25.288;2024-01-15T04:24:59;83.45;;;35.35;;
50393;SDS011;36308;46.312;25.288;2024-01-15T04:27:24;81.38;;;34.17;;
50393;SDS011;36308;46.312;25.288;2024-01-15T04:29:50;104.25;;;44.00;;
50393;SDS011;36308;46.312;25.288;2024-01-15T04:32:15;80.03;;;36.72;;
50393;SDS011;36308;46.312;25.288;2024-01-15T04:34:41;70.75;;;34.05;;
50393;SDS011;36308;46.312;25.288;2024-01-15T04:37:06;55.08;;;25.73;;
50393;SDS011;36308;46.312;25.288;2024-01-15T04:39:32;65.15;;;31.27;;
50393;SDS011;36308;46.312;25.288;2024-01-15T04:41:57;72.47;;;37.13;;
50393;SDS011;36308;46.312;25.288;2024-01-15T04:44:23;76.13;;;37.03;;
50393;SDS011;36308;46.312;25.288;2024-01-15T04:46:48;66.35;;;32.97;;
50393;SDS011;36308;46.312;25.288;2024-01-15T04:49:14;78.80;;;38.55;;
50393;SDS011;36308;46.312;25.288;2024-01-15T04:51:39;84.25;;;41.97;;
50393;SDS011;36308;46.312;25.288;2024-01-15T04:54:05;84.70;;;42.20;;
50393;SDS011;36308;46.312;25.288;2024-01-15T04:56:31;87.50;;;44.13;;
50393;SDS011;36308;46.312;25.288;2024-01-15T04:58:56;84.55;;;41.63;;
50393;SDS011;36308;46.312;25.288;2024-01-15T05:01:22;80.32;;;38.65;;
50393;SDS011;36308;46.312;25.288;2024-01-15T05:03:47;87.13;;;41.28;;
50393;SDS011;36308;46.312;25.288;2024-01-15T05:06:14;85.88;;;39.35;;
50393;SDS011;36308;46.312;25.288;2024-01-15T05:08:39;76.70;;;38.05;;
50393;SDS011;36308;46.312;25.288;2024-01-15T05:11:05;86.78;;;38.30;;
50393;SDS011;36308;46.312;25.288;2024-01-15T05:13:30;77.38;;;36.55;;
50393;SDS011;36308;46.312;25.288;2024-01-15T05:15:56;81.90;;;38.90;;
50393;SDS011;36308;46.312;25.288;2024-01-15T05:18:22;66.25;;;32.97;;
50393;SDS011;36308;46.312;25.288;2024-01-15T05:20:47;80.78;;;39.50;;
50393;SDS011;36308;46.312;25.288;2024-01-15T05:23:12;63.50;;;35.35;;
50393;SDS011;36308;46.312;25.288;2024-01-15T05:25:38;55.47;;;31.02;;
50393;SDS011;36308;46.312;25.288;2024-01-15T05:28:04;59.00;;;30.40;;
50393;SDS011;36308;46.312;25.288;2024-01-15T05:30:31;63.70;;;33.15;;
50393;SDS011;36308;46.312;25.288;2024-01-15T05:32:57;101.95;;;43.15;;
50393;SDS011;36308;46.312;25.288;2024-01-15T05:35:26;101.03;;;40.28;;
50393;SDS011;36308;46.312;25.288;2024-01-15T05:37:51;162.40;;;56.55;;
50393;SDS011;36308;46.312;25.288;2024-01-15T05:40:17;84.03;;;36.72;;
50393;SDS011;36308;46.312;25.288;2024-01-15T05:42:42;68.50;;;33.60;;
50393;SDS011;36308;46.312;25.288;2024-01-15T05:45:08;65.38;;;32.92;;
50393;SDS011;36308;46.312;25.288;2024-01-15T05:47:34;66.28;;;33.25;;
50393;SDS011;36308;46.312;25.288;2024-01-15T05:50:00;63.88;;;33.42;;
50393;SDS011;36308;46.312;25.288;2024-01-15T05:52:27;68.72;;;34.03;;
50393;SDS011;36308;46.312;25.288;2024-01-15T05:54:52;83.82;;;40.53;;
50393;SDS011;36308;46.312;25.288;2024-01-15T05:57:18;160.52;;;62.05;;
50393;SDS011;36308;46.312;25.288;2024-01-15T05:59:43;140.98;;;63.15;;
50393;SDS011;36308;46.312;25.288;2024-01-15T06:02:09;129.88;;;61.20;;
50393;SDS011;36308;46.312;25.288;2024-01-15T06:04:35;132.68;;;64.63;;
50393;SDS011;36308;46.312;25.288;2024-01-15T06:07:01;136.73;;;70.10;;
50393;SDS011;36308;46.312;25.288;2024-01-15T06:09:26;142.27;;;68.95;;
50393;SDS011;36308;46.312;25.288;2024-01-15T06:11:53;161.18;;;78.20;;
50393;SDS011;36308;46.312;25.288;2024-01-15T06:14:18;142.27;;;66.13;;
50393;SDS011;36308;46.312;25.288;2024-01-15T06:16:44;122.57;;;56.92;;
50393;SDS011;36308;46.312;25.288;2024-01-15T06:19:09;105.03;;;52.15;;
50393;SDS011;36308;46.312;25.288;2024-01-15T06:21:35;96.80;;;47.90;;
50393;SDS011;36308;46.312;25.288;2024-01-15T06:24:00;80.57;;;42.22;;
50393;SDS011;36308;46.312;25.288;2024-01-15T06:26:26;75.13;;;38.83;;
50393;SDS011;36308;46.312;25.288;2024-01-15T06:28:51;78.28;;;40.30;;
50393;SDS011;36308;46.312;25.288;2024-01-15T06:31:17;79.00;;;44.72;;
50393;SDS011;36308;46.312;25.288;2024-01-15T06:33:42;79.68;;;44.10;;
50393;SDS011;36308;46.312;25.288;2024-01-15T06:36:09;81.05;;;41.17;;
50393;SDS011;36308;46.312;25.288;2024-01-15T06:38:35;76.55;;;39.75;;
50393;SDS011;36308;46.312;25.288;2024-01-15T06:41:01;63.92;;;34.67;;
50393;SDS011;36308;46.312;25.288;2024-01-15T06:43:27;62.90;;;35.22;;
50393;SDS011;36308;46.312;25.288;2024-01-15T06:45:52;75.63;;;41.67;;
50393;SDS011;36308;46.312;25.288;2024-01-15T06:48:17;87.53;;;47.63;;
50393;SDS011;36308;46.312;25.288;2024-01-15T06:50:43;308.50;;;97.57;;
50393;SDS011;36308;46.312;25.288;2024-01-15T06:53:09;78.63;;;38.78;;
50393;SDS011;36308;46.312;25.288;2024-01-15T06:55:34;305.92;;;96.70;;
50393;SDS011;36308;46.312;25.288;2024-01-15T06:58:00;118.82;;;49.00;;
50393;SDS011;36308;46.312;25.288;2024-01-15T07:00:25;84.68;;;39.95;;
50393;SDS011;36308;46.312;25.288;2024-01-15T07:02:52;67.82;;;35.40;;
50393;SDS011;36308;46.312;25.288;2024-01-15T07:05:18;76.78;;;40.75;;
50393;SDS011;36308;46.312;25.288;2024-01-15T07:07:45;99.38;;;53.60;;
50393;SDS011;36308;46.312;25.288;2024-01-15T07:10:10;122.30;;;63.10;;
50393;SDS011;36308;46.312;25.288;2024-01-15T07:12:36;134.35;;;70.30;;
50393;SDS011;36308;46.312;25.288;2024-01-15T07:15:02;160.88;;;82.53;;
50393;SDS011;36308;46.312;25.288;2024-01-15T07:17:29;168.88;;;84.68;;
50393;SDS011;36308;46.312;25.288;2024-01-15T07:19:55;120.60;;;59.47;;
50393;SDS011;36308;46.312;25.288;2024-01-15T07:22:20;148.95;;;72.95;;
50393;SDS011;36308;46.312;25.288;2024-01-15T07:24:46;174.48;;;85.40;;
50393;SDS011;36308;46.312;25.288;2024-01-15T07:27:11;187.60;;;89.50;;
50393;SDS011;36308;46.312;25.288;2024-01-15T07:29:37;202.27;;;99.85;;
50393;SDS011;36308;46.312;25.288;2024-01-15T07:32:02;205.32;;;99.32;;
50393;SDS011;36308;46.312;25.288;2024-01-15T07:34:29;223.95;;;103.63;;
50393;SDS011;36308;46.312;25.288;2024-01-15T07:36:55;221.30;;;107.63;;
50393;SDS011;36308;46.312;25.288;2024-01-15T07:39:22;203.57;;;98.15;;
50393;SDS011;36308;46.312;25.288;2024-01-15T07:41:50;178.48;;;89.70;;
50393;SDS011;36308;46.312;25.288;2024-01-15T07:44:18;174.38;;;86.82;;
50393;SDS011;36308;46.312;25.288;2024-01-15T07:46:44;134.85;;;66.60;;
50393;SDS011;36308;46.312;25.288;2024-01-15T07:49:10;110.82;;;56.67;;
50393;SDS011;36308;46.312;25.288;2024-01-15T07:51:36;113.30;;;56.72;;
50393;SDS011;36308;46.312;25.288;2024-01-15T07:54:02;103.50;;;52.47;;
50393;SDS011;36308;46.312;25.288;2024-01-15T07:56:28;111.00;;;54.20;;
50393;SDS011;36308;46.312;25.288;2024-01-15T07:58:54;103.13;;;53.45;;
50393;SDS011;36308;46.312;25.288;2024-01-15T08:01:21;115.05;;;55.42;;
50393;SDS011;36308;46.312;25.288;2024-01-15T08:03:46;98.95;;;51.00;;
50393;SDS011;36308;46.312;25.288;2024-01-15T08:06:13;147.00;;;64.55;;
50393;SDS011;36308;46.312;25.288;2024-01-15T08:08:38;104.47;;;52.22;;
50393;SDS011;36308;46.312;25.288;2024-01-15T08:11:04;97.25;;;50.67;;
50393;SDS011;36308;46.312;25.288;2024-01-15T08:13:30;123.65;;;63.42;;
50393;SDS011;36308;46.312;25.288;2024-01-15T08:15:55;129.20;;;69.35;;
50393;SDS011;36308;46.312;25.288;2024-01-15T08:18:21;153.90;;;79.38;;
50393;SDS011;36308;46.312;25.288;2024-01-15T08:20:47;139.60;;;71.53;;
50393;SDS011;36308;46.312;25.288;2024-01-15T08:23:13;131.88;;;69.00;;
50393;SDS011;36308;46.312;25.288;2024-01-15T08:25:38;120.82;;;62.78;;
50393;SDS011;36308;46.312;25.288;2024-01-15T08:28:04;130.68;;;66.53;;
50393;SDS011;36308;46.312;25.288;2024-01-15T08:30:29;142.93;;;72.82;;
50393;SDS011;36308;46.312;25.288;2024-01-15T08:32:55;143.98;;;71.40;;
50393;SDS011;36308;46.312;25.288;2024-01-15T08:35:21;120.70;;;63.92;;
50393;SDS011;36308;46.312;25.288;2024-01-15T08:37:51;104.32;;;54.33;;
50393;SDS011;36308;46.312;25.288;2024-01-15T08:40:19;119.65;;;61.90;;
50393;SDS011;36308;46.312;25.288;2024-01-15T08:42:45;106.93;;;55.53;;
50393;SDS011;36308;46.312;25.288;2024-01-15T08:45:11;117.90;;;58.92;;
50393;SDS011;36308;46.312;25.288;2024-01-15T08:47:38;73.95;;;38.65;;
50393;SDS011;36308;46.312;25.288;2024-01-15T08:50:04;81.97;;;44.45;;
50393;SDS011;36308;46.312;25.288;2024-01-15T08:52:31;94.68;;;46.67;;
50393;SDS011;36308;46.312;25.288;2024-01-15T08:54:56;190.88;;;90.78;;
50393;SDS011;36308;46.312;25.288;2024-01-15T08:57:22;89.47;;;45.28;;
50393;SDS011;36308;46.312;25.288;2024-01-15T08:59:48;96.97;;;49.38;;
50393;SDS011;36308;46.312;25.288;2024-01-15T09:02:14;88.40;;;47.17;;
50393;SDS011;36308;46.312;25.288;2024-01-15T09:04:40;83.35;;;43.58;;
50393;SDS011;36308;46.312;25.288;2024-01-15T09:07:06;92.57;;;49.60;;
50393;SDS011;36308;46.312;25.288;2024-01-15T09:09:32;86.90;;;48.63;;
50393;SDS011;36308;46.312;25.288;2024-01-15T09:11:59;81.05;;;45.15;;
50393;SDS011;36308;46.312;25.288;2024-01-15T09:14:24;67.25;;;39.40;;
50393;SDS011;36308;46.312;25.288;2024-01-15T09:16:52;72.38;;;42.10;;
50393;SDS011;36308;46.312;25.288;2024-01-15T09:19:18;68.13;;;39.03;;
50393;SDS011;36308;46.312;25.288;2024-01-15T09:21:44;76.90;;;42.90;;
50393;SDS011;36308;46.312;25.288;2024-01-15T09:24:09;72.53;;;41.55;;
50393;SDS011;36308;46.312;25.288;2024-01-15T09:26:35;68.50;;;39.45;;
50393;SDS011;36308;46.312;25.288;2024-01-15T09:29:00;75.00;;;41.50;;
50393;SDS011;36308;46.312;25.288;2024-01-15T09:31:26;80.03;;;45.42;;
50393;SDS011;36308;46.312;25.288;2024-01-15T09:33:52;84.43;;;47.53;;
50393;SDS011;36308;46.312;25.288;2024-01-15T09:36:21;74.82;;;43.55;;
50393;SDS011;36308;46.312;25.288;2024-01-15T09:38:47;65.10;;;39.30;;
50393;SDS011;36308;46.312;25.288;2024-01-15T09:41:13;69.53;;;39.90;;
50393;SDS011;36308;46.312;25.288;2024-01-15T09:43:40;70.70;;;40.13;;
50393;SDS011;36308;46.312;25.288;2024-01-15T09:46:06;68.65;;;39.53;;
50393;SDS011;36308;46.312;25.288;2024-01-15T09:48:32;66.82;;;38.00;;
50393;SDS011;36308;46.312;25.288;2024-01-15T09:51:01;69.38;;;37.85;;
50393;SDS011;36308;46.312;25.288;2024-01-15T09:53:27;68.18;;;40.03;;
50393;SDS011;36308;46.312;25.288;2024-01-15T09:55:53;85.07;;;44.53;;
50393;SDS011;36308;46.312;25.288;2024-01-15T09:58:19;77.78;;;43.08;;
50393;SDS011;36308;46.312;25.288;2024-01-15T10:00:46;65.20;;;36.22;;
50393;SDS011;36308;46.312;25.288;2024-01-15T10:03:15;57.42;;;34.20;;
50393;SDS011;36308;46.312;25.288;2024-01-15T10:05:40;66.35;;;35.53;;
50393;SDS011;36308;46.312;25.288;2024-01-15T10:08:06;66.55;;;34.75;;
50393;SDS011;36308;46.312;25.288;2024-01-15T10:10:32;57.50;;;32.85;;
50393;SDS011;36308;46.312;25.288;2024-01-15T10:12:58;72.80;;;40.97;;
50393;SDS011;36308;46.312;25.288;2024-01-15T10:15:27;60.28;;;35.05;;
50393;SDS011;36308;46.312;25.288;2024-01-15T10:17:53;65.20;;;35.97;;
50393;SDS011;36308;46.312;25.288;2024-01-15T10:20:19;64.97;;;37.13;;
50393;SDS011;36308;46.312;25.288;2024-01-15T10:22:49;53.42;;;31.30;;
50393;SDS011;36308;46.312;25.288;2024-01-15T10:25:15;57.45;;;31.67;;
50393;SDS011;36308;46.312;25.288;2024-01-15T10:27:41;49.15;;;29.10;;
50393;SDS011;36308;46.312;25.288;2024-01-15T10:30:08;49.55;;;29.58;;
50393;SDS011;36308;46.312;25.288;2024-01-15T10:32:39;51.05;;;30.13;;
50393;SDS011;36308;46.312;25.288;2024-01-15T10:35:06;56.03;;;34.03;;
50393;SDS011;36308;46.312;25.288;2024-01-15T10:37:33;52.70;;;31.08;;
50393;SDS011;36308;46.312;25.288;2024-01-15T10:40:02;54.78;;;30.77;;
50393;SDS011;36308;46.312;25.288;2024-01-15T10:42:30;59.83;;;33.17;;
50393;SDS011;36308;46.312;25.288;2024-01-15T10:44:56;63.05;;;35.88;;
50393;SDS011;36308;46.312;25.288;2024-01-15T10:47:21;72.45;;;35.85;;
50393;SDS011;36308;46.312;25.288;2024-01-15T10:49:48;131.90;;;55.75;;
50393;SDS011;36308;46.312;25.288;2024-01-15T10:52:15;70.47;;;36.50;;
50393;SDS011;36308;46.312;25.288;2024-01-15T10:54:41;52.67;;;30.45;;
50393;SDS011;36308;46.312;25.288;2024-01-15T10:57:08;44.20;;;26.20;;
50393;SDS011;36308;46.312;25.288;2024-01-15T10:59:34;41.17;;;25.00;;
50393;SDS011;36308;46.312;25.288;2024-01-15T11:02:01;40.58;;;24.05;;
50393;SDS011;36308;46.312;25.288;2024-01-15T11:04:27;36.67;;;21.92;;
50393;SDS011;36308;46.312;25.288;2024-01-15T11:06:56;37.72;;;23.00;;
50393;SDS011;36308;46.312;25.288;2024-01-15T11:09:22;34.80;;;21.58;;
50393;SDS011;36308;46.312;25.288;2024-01-15T11:11:50;44.53;;;26.48;;
50393;SDS011;36308;46.312;25.288;2024-01-15T11:14:34;31.42;;;19.67;;
50393;SDS011;36308;46.312;25.288;2024-01-15T11:17:06;33.70;;;19.58;;
50393;SDS011;36308;46.312;25.288;2024-01-15T11:19:35;31.38;;;19.73;;
50393;SDS011;36308;46.312;25.288;2024-01-15T11:24:55;32.13;;;18.65;;
50393;SDS011;36308;46.312;25.288;2024-01-15T11:27:42;36.83;;;21.55;;
50393;SDS011;36308;46.312;25.288;2024-01-15T11:30:09;51.80;;;25.58;;
50393;SDS011;36308;46.312;25.288;2024-01-15T11:32:35;31.95;;;17.75;;
50393;SDS011;36308;46.312;25.288;2024-01-15T11:35:11;27.30;;;15.48;;
50393;SDS011;36308;46.312;25.288;2024-01-15T11:40:49;29.27;;;16.40;;
50393;SDS011;36308;46.312;25.288;2024-01-15T11:43:11;30.55;;;15.93;;
50393;SDS011;36308;46.312;25.288;2024-01-15T11:45:38;27.88;;;17.42;;
50393;SDS011;36308;46.312;25.288;2024-01-15T11:50:47;37.30;;;20.63;;
50393;SDS011;36308;46.312;25.288;2024-01-15T11:55:58;31.75;;;19.85;;
50393;SDS011;36308;46.312;25.288;2024-01-15T11:58:24;24.48;;;13.60;;
50393;SDS011;36308;46.312;25.288;2024-01-15T12:00:51;25.23;;;14.43;;
50393;SDS011;36308;46.312;25.288;2024-01-15T12:03:17;41.60;;;20.63;;
50393;SDS011;36308;46.312;25.288;2024-01-15T12:05:46;43.75;;;22.92;;
50393;SDS011;36308;46.312;25.288;2024-01-15T12:08:11;39.45;;;20.35;;
50393;SDS011;36308;46.312;25.288;2024-01-15T12:10:40;42.08;;;23.10;;
50393;SDS011;36308;46.312;25.288;2024-01-15T12:13:12;35.58;;;20.35;;
50393;SDS011;36308;46.312;25.288;2024-01-15T12:15:39;36.10;;;21.63;;
50393;SDS011;36308;46.312;25.288;2024-01-15T12:18:09;41.67;;;22.15;;
50393;SDS011;36308;46.312;25.288;2024-01-15T12:20:36;32.28;;;20.92;;
50393;SDS011;36308;46.312;25.288;2024-01-15T12:23:02;34.67;;;19.65;;
50393;SDS011;36308;46.312;25.288;2024-01-15T12:25:29;27.92;;;17.52;;
50393;SDS011;36308;46.312;25.288;2024-01-15T12:27:55;26.33;;;15.35;;
50393;SDS011;36308;46.312;25.288;2024-01-15T12:30:22;25.83;;;14.45;;
50393;SDS011;36308;46.312;25.288;2024-01-15T12:32:47;24.70;;;14.20;;
50393;SDS011;36308;46.312;25.288;2024-01-15T12:35:13;27.15;;;16.10;;
50393;SDS011;36308;46.312;25.288;2024-01-15T12:37:40;24.25;;;14.55;;
50393;SDS011;36308;46.312;25.288;2024-01-15T12:42:50;27.73;;;15.85;;
50393;SDS011;36308;46.312;25.288;2024-01-15T12:45:16;27.23;;;16.15;;
50393;SDS011;36308;46.312;25.288;2024-01-15T12:47:42;39.60;;;20.42;;
50393;SDS011;36308;46.312;25.288;2024-01-15T12:50:11;28.58;;;16.00;;
50393;SDS011;36308;46.312;25.288;2024-01-15T12:52:37;25.33;;;15.82;;
50393;SDS011;36308;46.312;25.288;2024-01-15T12:55:06;41.65;;;23.83;;
50393;SDS011;36308;46.312;25.288;2024-01-15T12:57:34;40.88;;;20.00;;
50393;SDS011;36308;46.312;25.288;2024-01-15T12:59:59;39.85;;;21.88;;
50393;SDS011;36308;46.312;25.288;2024-01-15T13:02:25;41.88;;;24.13;;
50393;SDS011;36308;46.312;25.288;2024-01-15T13:04:51;38.10;;;22.65;;
50393;SDS011;36308;46.312;25.288;2024-01-15T13:07:16;42.30;;;22.98;;
50393;SDS011;36308;46.312;25.288;2024-01-15T13:09:42;35.75;;;21.25;;
50393;SDS011;36308;46.312;25.288;2024-01-15T13:12:09;37.85;;;21.15;;
50393;SDS011;36308;46.312;25.288;2024-01-15T13:14:37;26.35;;;14.27;;
50393;SDS011;36308;46.312;25.288;2024-01-15T13:17:03;59.22;;;30.55;;
50393;SDS011;36308;46.312;25.288;2024-01-15T13:19:29;63.78;;;32.95;;
50393;SDS011;36308;46.312;25.288;2024-01-15T13:21:54;57.05;;;29.65;;
50393;SDS011;36308;46.312;25.288;2024-01-15T13:24:23;39.78;;;21.40;;
50393;SDS011;36308;46.312;25.288;2024-01-15T13:26:49;36.22;;;20.38;;
50393;SDS011;36308;46.312;25.288;2024-01-15T13:29:15;35.70;;;20.80;;
50393;SDS011;36308;46.312;25.288;2024-01-15T13:31:40;39.72;;;24.05;;
50393;SDS011;36308;46.312;25.288;2024-01-15T13:34:06;32.47;;;19.98;;
50393;SDS011;36308;46.312;25.288;2024-01-15T13:36:32;28.65;;;17.80;;
50393;SDS011;36308;46.312;25.288;2024-01-15T13:38:58;25.75;;;15.57;;
50393;SDS011;36308;46.312;25.288;2024-01-15T13:41:24;35.40;;;20.05;;
50393;SDS011;36308;46.312;25.288;2024-01-15T13:43:53;35.75;;;19.67;;
50393;SDS011;36308;46.312;25.288;2024-01-15T13:46:20;39.33;;;19.98;;
50393;SDS011;36308;46.312;25.288;2024-01-15T13:48:49;33.47;;;19.83;;
50393;SDS011;36308;46.312;25.288;2024-01-15T13:51:14;36.20;;;20.63;;
50393;SDS011;36308;46.312;25.288;2024-01-15T13:53:41;48.40;;;22.85;;
50393;SDS011;36308;46.312;25.288;2024-01-15T13:56:07;51.15;;;25.05;;
50393;SDS011;36308;46.312;25.288;2024-01-15T13:58:35;58.20;;;30.10;;
50393;SDS011;36308;46.312;25.288;2024-01-15T14:01:00;46.60;;;22.88;;
50393;SDS011;36308;46.312;25.288;2024-01-15T14:03:26;46.78;;;25.48;;
50393;SDS011;36308;46.312;25.288;2024-01-15T14:05:52;49.65;;;27.15;;
50393;SDS011;36308;46.312;25.288;2024-01-15T14:08:18;46.65;;;24.80;;
50393;SDS011;36308;46.312;25.288;2024-01-15T14:10:44;63.30;;;32.97;;
50393;SDS011;36308;46.312;25.288;2024-01-15T14:13:10;94.60;;;46.53;;
50393;SDS011;36308;46.312;25.288;2024-01-15T14:15:35;76.15;;;41.35;;